createdAt,value
2024-05-09T00:00:55.035Z,16.08
2024-05-09T00:03:26.753Z,14.73
2024-05-09T00:05:58.736Z,22.00
2024-05-09T00:08:30.805Z,17.10
2024-05-09T00:11:02.752Z,20.45
2024-05-09T00:13:34.749Z,14.20
2024-05-09T00:16:07.004Z,15.00
2024-05-09T00:18:38.839Z,17.92
2024-05-09T00:21:10.679Z,26.77
2024-05-09T00:23:42.483Z,18.13
2024-05-09T00:26:19.888Z,20.70
2024-05-09T00:28:51.665Z,16.80
2024-05-09T00:31:24.864Z,17.52
2024-05-09T00:33:56.796Z,24.98
2024-05-09T00:36:28.743Z,19.55
2024-05-09T00:39:00.380Z,16.05
2024-05-09T00:41:32.222Z,16.80
2024-05-09T00:44:04.551Z,15.00
2024-05-09T00:46:36.392Z,16.42
2024-05-09T00:49:09.032Z,18.67
2024-05-09T00:51:42.180Z,20.33
2024-05-09T00:54:14.401Z,19.20
2024-05-09T00:56:46.278Z,15.77
2024-05-09T00:59:19.182Z,19.13
2024-05-09T01:01:51.097Z,16.10
2024-05-09T01:04:22.927Z,18.95
2024-05-09T01:06:54.633Z,18.40
2024-05-09T01:09:26.348Z,19.67
2024-05-09T01:11:58.062Z,19.25
2024-05-09T01:14:29.833Z,20.70
2024-05-09T01:17:01.716Z,17.30
2024-05-09T01:19:33.653Z,16.58
2024-05-09T01:22:07.958Z,23.05
2024-05-09T01:24:39.711Z,18.40
2024-05-09T01:27:11.429Z,20.38
2024-05-09T01:29:43.043Z,21.55
2024-05-09T01:32:14.934Z,20.73
2024-05-09T01:34:47.004Z,18.77
2024-05-09T01:37:18.784Z,19.33
2024-05-09T01:39:50.547Z,27.33
2024-05-09T01:42:22.303Z,21.58
2024-05-09T01:44:54.034Z,22.15
2024-05-09T01:47:26.083Z,25.67
2024-05-09T01:49:57.930Z,26.45
2024-05-09T01:52:29.791Z,23.58
2024-05-09T01:55:03.418Z,27.30
2024-05-09T01:57:37.349Z,23.92
2024-05-09T02:00:10.388Z,32.78
2024-05-09T02:02:45.611Z,25.02
2024-05-09T02:05:17.484Z,23.00
2024-05-09T02:07:49.388Z,23.67
2024-05-09T02:10:26.374Z,28.05
2024-05-09T02:13:03.822Z,22.90
2024-05-09T02:15:35.641Z,24.75
2024-05-09T02:18:08.548Z,26.50
2024-05-09T02:20:42.899Z,26.58
2024-05-09T02:23:15.326Z,25.65
2024-05-09T02:25:47.113Z,24.13
2024-05-09T02:28:21.133Z,22.75
2024-05-09T02:30:52.779Z,29.20
2024-05-09T02:33:24.616Z,23.05
2024-05-09T02:35:56.490Z,23.73
2024-05-09T02:38:28.264Z,21.13
2024-05-09T02:41:00.034Z,22.13
2024-05-09T02:43:31.732Z,32.50
2024-05-09T02:46:03.504Z,27.42
2024-05-09T02:48:35.328Z,24.88
2024-05-09T02:51:07.242Z,21.42
2024-05-09T02:53:39.232Z,22.38
2024-05-09T02:56:11.204Z,25.23
2024-05-09T02:58:42.967Z,25.30
2024-05-09T03:01:17.487Z,19.30
2024-05-09T03:03:51.102Z,24.63
2024-05-09T03:06:22.872Z,23.25
2024-05-09T03:08:54.563Z,23.85
2024-05-09T03:11:26.484Z,23.77
2024-05-09T03:13:58.299Z,26.25
2024-05-09T03:16:29.939Z,25.35
2024-05-09T03:19:01.699Z,25.10
2024-05-09T03:21:33.511Z,26.73
2024-05-09T03:24:06.261Z,24.35
2024-05-09T03:26:37.969Z,20.00
2024-05-09T03:29:10.051Z,24.25
2024-05-09T03:31:41.895Z,22.35
2024-05-09T03:34:13.679Z,25.08
2024-05-09T03:36:45.637Z,25.60
2024-05-09T03:39:17.351Z,27.80
2024-05-09T03:41:49.035Z,30.30
2024-05-09T03:44:20.750Z,24.45
2024-05-09T03:46:52.456Z,24.95
2024-05-09T03:49:24.637Z,28.42
2024-05-09T03:51:56.479Z,30.15
2024-05-09T03:54:28.330Z,29.80
2024-05-09T03:56:59.990Z,23.48
2024-05-09T03:59:31.737Z,27.23
2024-05-09T04:02:05.539Z,26.50
2024-05-09T04:04:37.321Z,24.90
2024-05-09T04:07:09.032Z,27.55
2024-05-09T04:09:40.685Z,26.67
2024-05-09T04:12:12.632Z,28.85
2024-05-09T04:14:44.308Z,31.63
2024-05-09T04:17:15.986Z,30.30
2024-05-09T04:19:47.809Z,23.52
2024-05-09T04:22:19.520Z,24.90
2024-05-09T04:24:52.920Z,31.88
2024-05-09T04:27:24.628Z,27.20
2024-05-09T04:29:56.433Z,24.27
2024-05-09T04:32:28.261Z,31.13
2024-05-09T04:35:00.436Z,27.90
2024-05-09T04:37:32.137Z,24.35
2024-05-09T04:40:06.919Z,27.90
2024-05-09T04:42:43.685Z,34.25
2024-05-09T04:45:15.358Z,30.65
2024-05-09T04:47:47.300Z,35.08
2024-05-09T04:50:28.944Z,27.98
2024-05-09T04:53:08.255Z,30.65
2024-05-09T04:55:41.368Z,31.10
2024-05-09T04:58:13.039Z,32.92
2024-05-09T05:00:44.917Z,25.95
2024-05-09T05:03:17.161Z,22.77
2024-05-09T05:05:49.381Z,22.40
2024-05-09T05:08:21.164Z,22.83
2024-05-09T05:10:53.068Z,19.95
2024-05-09T05:13:25.646Z,20.77
2024-05-09T05:15:58.372Z,18.10
2024-05-09T05:18:30.798Z,23.98
2024-05-09T05:21:02.745Z,20.45
2024-05-09T05:23:34.662Z,20.65
2024-05-09T05:26:06.521Z,19.13
2024-05-09T05:28:38.155Z,18.30
2024-05-09T05:31:09.947Z,17.17
2024-05-09T05:33:41.868Z,19.73
2024-05-09T05:36:13.764Z,18.55
2024-05-09T05:38:45.560Z,17.48
2024-05-09T05:41:17.387Z,16.58
2024-05-09T05:43:49.179Z,18.27
2024-05-09T05:46:20.904Z,16.15
2024-05-09T05:48:52.587Z,16.65
2024-05-09T05:51:24.277Z,17.13
2024-05-09T05:53:55.945Z,15.52
2024-05-09T05:56:27.736Z,17.85
2024-05-09T05:58:59.430Z,16.85
2024-05-09T06:01:31.292Z,17.58
2024-05-09T06:04:03.060Z,14.65
2024-05-09T06:06:34.820Z,14.80
2024-05-09T06:09:06.568Z,15.20
2024-05-09T06:11:40.536Z,11.07
2024-05-09T06:14:12.403Z,13.00
2024-05-09T06:16:44.210Z,13.63
2024-05-09T06:19:16.051Z,14.93
2024-05-09T06:21:47.977Z,13.18
2024-05-09T06:24:19.702Z,12.15
2024-05-09T06:26:51.497Z,13.68
2024-05-09T06:29:23.269Z,13.07
2024-05-09T06:31:57.176Z,10.43
2024-05-09T06:34:31.229Z,14.55
2024-05-09T06:37:32.964Z,10.52
2024-05-09T06:40:10.133Z,14.05
2024-05-09T06:42:42.026Z,12.77
2024-05-09T06:45:15.711Z,13.63
2024-05-09T06:47:47.469Z,9.40
2024-05-09T06:50:23.968Z,12.35
2024-05-09T06:52:59.620Z,13.07
2024-05-09T06:55:31.251Z,17.05
2024-05-09T06:58:09.197Z,9.70
2024-05-09T07:00:42.096Z,11.27
2024-05-09T07:03:17.161Z,12.48
2024-05-09T07:05:50.478Z,10.48
2024-05-09T07:08:22.208Z,12.05
2024-05-09T07:10:54.043Z,10.13
2024-05-09T07:13:25.861Z,14.50
2024-05-09T07:15:57.480Z,11.13
2024-05-09T07:18:29.346Z,8.65
2024-05-09T07:21:01.273Z,9.68
2024-05-09T07:23:33.161Z,10.73
2024-05-09T07:26:05.080Z,8.45
2024-05-09T07:28:36.731Z,11.50
2024-05-09T07:31:08.877Z,8.23
2024-05-09T07:33:40.801Z,9.20
2024-05-09T07:36:12.524Z,11.13
2024-05-09T07:38:44.344Z,9.32
2024-05-09T07:41:16.121Z,9.10
2024-05-09T07:43:48.863Z,11.50
2024-05-09T07:47:14.168Z,8.93
2024-05-09T07:50:53.490Z,8.07
2024-05-09T07:53:27.125Z,7.78
2024-05-09T07:54:55.820Z,10.82
2024-05-09T07:57:27.728Z,9.57
2024-05-09T07:59:59.476Z,7.93
2024-05-09T08:02:31.353Z,8.65
2024-05-09T08:05:03.243Z,9.75
2024-05-09T08:07:37.086Z,8.95
2024-05-09T08:10:12.737Z,7.97
2024-05-09T08:12:45.057Z,11.57
2024-05-09T08:15:16.831Z,10.25
2024-05-09T08:17:48.549Z,9.25
2024-05-09T08:20:27.024Z,12.60
2024-05-09T08:23:02.810Z,9.85
2024-05-09T08:25:34.613Z,11.55
2024-05-09T08:28:06.603Z,8.88
2024-05-09T08:30:38.670Z,8.65
2024-05-09T08:33:10.646Z,9.88
2024-05-09T08:35:42.479Z,8.18
2024-05-09T08:38:14.240Z,8.90
2024-05-09T08:40:46.333Z,7.43
2024-05-09T08:43:19.878Z,8.23
2024-05-09T08:45:52.093Z,6.30
2024-05-09T08:49:06.019Z,10.35
2024-05-09T08:51:38.036Z,6.30
2024-05-09T08:54:10.168Z,10.40
2024-05-09T08:56:45.836Z,8.18
2024-05-09T08:59:23.791Z,8.57
2024-05-09T09:01:55.694Z,8.73
2024-05-09T09:04:28.881Z,7.00
2024-05-09T09:07:02.273Z,6.68
2024-05-09T09:12:16.004Z,6.93
2024-05-09T09:14:47.822Z,7.18
2024-05-09T09:17:19.816Z,8.80
2024-05-09T09:19:54.485Z,9.15
2024-05-09T09:22:26.241Z,10.35
2024-05-09T09:24:58.025Z,8.23
2024-05-09T09:27:29.994Z,8.57
2024-05-09T09:30:01.641Z,11.23
2024-05-09T09:32:33.624Z,6.57
2024-05-09T09:35:05.843Z,15.27
2024-05-09T09:37:37.994Z,6.63
2024-05-09T09:40:12.834Z,6.55
2024-05-09T09:43:08.653Z,8.15
2024-05-09T09:45:42.340Z,8.55
2024-05-09T09:48:15.041Z,8.40
2024-05-09T09:50:47.622Z,8.35
2024-05-09T09:53:19.948Z,10.77
2024-05-09T09:55:52.438Z,8.65
2024-05-09T09:58:24.834Z,9.35
2024-05-09T10:00:56.944Z,7.43
2024-05-09T10:03:29.055Z,7.75
2024-05-09T10:06:01.247Z,9.23
2024-05-09T10:08:33.946Z,9.95
2024-05-09T10:11:06.770Z,7.85
2024-05-09T10:13:42.496Z,9.30
2024-05-09T10:16:20.454Z,10.63
2024-05-09T10:18:52.815Z,11.63
2024-05-09T10:21:26.202Z,8.45
2024-05-09T10:24:03.269Z,8.18
2024-05-09T10:26:36.719Z,7.28
2024-05-09T10:29:18.224Z,10.60
2024-05-09T10:31:50.216Z,11.57
2024-05-09T10:34:24.118Z,10.85
2024-05-09T10:36:56.249Z,12.25
2024-05-09T10:39:35.174Z,8.65
2024-05-09T10:42:10.032Z,13.32
2024-05-09T10:47:26.055Z,10.13
2024-05-09T10:49:57.839Z,85.57
2024-05-09T10:52:29.533Z,69.80
2024-05-09T10:55:03.070Z,29.55
2024-05-09T10:57:40.913Z,41.28
2024-05-09T11:00:19.345Z,28.30
2024-05-09T11:02:58.963Z,23.85
2024-05-09T11:05:30.852Z,15.45
2024-05-09T11:08:02.845Z,12.70
2024-05-09T11:10:34.964Z,18.75
2024-05-09T11:13:06.983Z,10.10
2024-05-09T11:15:42.302Z,26.48
2024-05-09T11:18:25.345Z,41.33
2024-05-09T11:20:58.815Z,37.85
2024-05-09T11:23:30.970Z,39.17
2024-05-09T11:26:03.539Z,18.13
2024-05-09T11:28:35.279Z,30.58
2024-05-09T11:33:54.810Z,19.27
2024-05-09T11:36:26.772Z,17.70
2024-05-09T11:38:58.544Z,35.05
2024-05-09T11:41:31.434Z,45.10
2024-05-09T11:44:03.248Z,21.08
2024-05-09T11:46:34.949Z,17.08
2024-05-09T11:49:06.879Z,31.55
2024-05-09T11:51:38.830Z,22.85
2024-05-09T11:54:10.624Z,28.50
2024-05-09T11:56:42.895Z,40.22
2024-05-09T11:59:17.220Z,13.60
2024-05-09T12:01:49.075Z,12.82
2024-05-09T12:04:21.188Z,15.90
2024-05-09T12:06:53.102Z,25.17
2024-05-09T12:09:25.739Z,14.38
2024-05-09T12:11:57.474Z,13.52
2024-05-09T12:14:29.351Z,19.83
2024-05-09T12:17:01.974Z,19.80
2024-05-09T12:19:33.996Z,22.77
2024-05-09T12:22:05.735Z,20.00
2024-05-09T12:24:37.441Z,14.93
2024-05-09T12:27:09.118Z,26.52
2024-05-09T12:29:40.854Z,23.42
2024-05-09T12:32:12.695Z,14.90
2024-05-09T12:34:44.539Z,24.52
2024-05-09T12:37:16.391Z,15.40
2024-05-09T12:39:48.310Z,19.27
2024-05-09T12:42:27.074Z,19.83
2024-05-09T12:45:00.324Z,29.85
2024-05-09T12:47:32.238Z,27.77
2024-05-09T12:50:06.480Z,20.48
2024-05-09T12:52:40.102Z,23.70
2024-05-09T12:55:12.000Z,18.40
2024-05-09T12:57:43.713Z,18.05
2024-05-09T13:00:23.742Z,19.95
2024-05-09T13:02:59.979Z,20.80
2024-05-09T13:05:32.338Z,34.47
2024-05-09T13:08:04.577Z,37.35
2024-05-09T13:10:37.038Z,20.85
2024-05-09T13:13:10.278Z,14.07
2024-05-09T13:15:42.647Z,15.88
2024-05-09T13:18:14.443Z,13.38
2024-05-09T13:20:46.253Z,12.25
2024-05-09T13:23:18.010Z,53.55
2024-05-09T13:25:49.763Z,16.88
2024-05-09T13:28:22.739Z,18.17
2024-05-09T13:30:54.806Z,17.95
2024-05-09T13:33:26.799Z,25.25
2024-05-09T13:35:58.950Z,18.60
2024-05-09T13:38:30.626Z,19.35
2024-05-09T13:41:02.495Z,28.35
2024-05-09T13:43:34.263Z,22.98
2024-05-09T13:46:06.145Z,21.65
2024-05-09T13:48:38.001Z,53.30
2024-05-09T13:51:10.016Z,26.90
2024-05-09T13:53:41.779Z,55.25
2024-05-09T13:56:13.684Z,18.73
2024-05-09T13:58:45.620Z,26.85
2024-05-09T14:01:17.679Z,18.42
2024-05-09T14:03:49.804Z,15.00
2024-05-09T14:06:21.838Z,22.25
2024-05-09T14:08:53.560Z,17.20
2024-05-09T14:11:25.440Z,40.15
2024-05-09T14:13:57.125Z,16.98
2024-05-09T14:16:32.801Z,13.68
2024-05-09T14:19:04.863Z,21.80
2024-05-09T14:21:36.750Z,23.13
2024-05-09T14:24:08.446Z,21.42
2024-05-09T14:26:40.391Z,20.65
2024-05-09T14:29:12.285Z,32.63
2024-05-09T14:31:44.070Z,21.75
2024-05-09T14:34:16.023Z,20.17
2024-05-09T14:36:47.868Z,28.90
2024-05-09T14:39:19.633Z,19.00
2024-05-09T14:41:51.462Z,53.05
2024-05-09T14:44:23.299Z,67.28
2024-05-09T14:46:55.251Z,42.35
2024-05-09T14:49:27.064Z,26.77
2024-05-09T14:51:58.971Z,27.90
2024-05-09T14:54:30.691Z,20.80
2024-05-09T14:57:02.725Z,15.43
2024-05-09T14:59:34.680Z,12.50
2024-05-09T15:02:06.889Z,16.50
2024-05-09T15:04:38.998Z,12.65
2024-05-09T15:07:11.567Z,12.15
2024-05-09T15:09:43.507Z,15.00
2024-05-09T15:12:15.277Z,15.85
2024-05-09T15:14:47.798Z,12.65
2024-05-09T15:17:19.816Z,11.25
2024-05-09T15:19:51.743Z,13.82
2024-05-09T15:22:23.810Z,15.27
2024-05-09T15:24:55.854Z,13.63
2024-05-09T15:27:27.784Z,14.90
2024-05-09T15:30:05.489Z,16.40
2024-05-09T15:32:40.791Z,13.52
2024-05-09T15:35:12.916Z,12.18
2024-05-09T15:37:46.568Z,12.90
2024-05-09T15:40:26.436Z,12.52
2024-05-09T15:43:08.411Z,16.13
2024-05-09T15:45:41.706Z,12.27
2024-05-09T15:48:14.650Z,10.75
2024-05-09T15:50:46.582Z,14.70
2024-05-09T15:53:21.861Z,15.77
2024-05-09T15:55:55.830Z,13.60
2024-05-09T15:58:28.466Z,13.52
2024-05-09T16:01:00.529Z,13.35
2024-05-09T16:03:32.621Z,13.82
2024-05-09T16:06:05.718Z,11.13
2024-05-09T16:08:37.727Z,9.05
2024-05-09T16:11:09.740Z,8.75
2024-05-09T16:13:41.758Z,10.65
2024-05-09T16:16:13.739Z,9.48
2024-05-09T16:18:45.857Z,9.85
2024-05-09T16:21:17.618Z,12.13
2024-05-09T16:23:49.391Z,12.20
2024-05-09T16:26:21.463Z,11.50
2024-05-09T16:28:53.860Z,12.80
2024-05-09T16:31:26.036Z,12.68
2024-05-09T16:33:58.222Z,54.15
2024-05-09T16:36:30.118Z,50.55
2024-05-09T16:39:02.092Z,49.30
2024-05-09T16:41:33.859Z,48.55
2024-05-09T16:44:05.942Z,66.20
2024-05-09T16:46:37.756Z,34.97
2024-05-09T16:49:11.303Z,135.05
2024-05-09T16:51:43.847Z,39.97
2024-05-09T16:54:15.753Z,30.20
2024-05-09T16:56:47.974Z,69.95
2024-05-09T16:59:22.029Z,59.20
2024-05-09T17:01:54.027Z,52.67
2024-05-09T17:04:26.002Z,35.35
2024-05-09T17:06:58.053Z,75.85
2024-05-09T17:09:30.098Z,73.57
2024-05-09T17:12:02.024Z,24.15
2024-05-09T17:14:34.065Z,17.05
2024-05-09T17:17:08.133Z,26.05
2024-05-09T17:19:42.509Z,68.97
2024-05-09T17:22:15.059Z,46.85
2024-05-09T17:24:47.127Z,47.92
2024-05-09T17:27:19.157Z,31.80
2024-05-09T17:29:51.186Z,33.78
2024-05-09T17:32:22.956Z,50.75
2024-05-09T17:34:54.831Z,82.28
2024-05-09T17:37:27.023Z,12.05
2024-05-09T17:39:59.247Z,11.02
2024-05-09T17:42:31.088Z,13.43
2024-05-09T17:45:03.253Z,12.60
2024-05-09T17:47:36.204Z,11.95
2024-05-09T17:50:14.642Z,11.90
2024-05-09T17:52:51.460Z,12.07
2024-05-09T17:55:23.505Z,10.48
2024-05-09T17:57:55.253Z,12.07
2024-05-09T18:00:47.480Z,11.60
2024-05-09T18:03:20.101Z,10.35
2024-05-09T18:05:52.035Z,11.85
2024-05-09T18:08:23.761Z,9.27
2024-05-09T18:10:56.088Z,9.02
2024-05-09T18:13:29.094Z,11.15
2024-05-09T18:16:01.047Z,11.05
2024-05-09T18:18:33.628Z,8.75
2024-05-09T18:21:05.656Z,9.05
2024-05-09T18:23:37.452Z,14.65
2024-05-09T18:26:09.591Z,11.07
2024-05-09T18:28:41.305Z,9.10
2024-05-09T18:31:15.310Z,7.70
2024-05-09T18:33:47.271Z,14.45
2024-05-09T18:36:19.165Z,13.43
2024-05-09T18:38:50.957Z,9.73
2024-05-09T18:41:22.689Z,11.18
2024-05-09T18:43:55.224Z,15.23
2024-05-09T18:46:27.270Z,10.35
2024-05-09T18:48:59.308Z,9.85
2024-05-09T18:51:31.312Z,11.27
2024-05-09T18:54:03.504Z,12.18
2024-05-09T18:56:37.464Z,10.32
2024-05-09T18:59:09.247Z,10.55
2024-05-09T19:01:42.271Z,10.50
2024-05-09T19:04:18.320Z,7.93
2024-05-09T19:06:50.262Z,9.95
2024-05-09T19:09:21.994Z,10.10
2024-05-09T19:11:53.807Z,7.88
2024-05-09T19:14:25.684Z,8.10
2024-05-09T19:17:00.161Z,12.43
2024-05-09T19:19:32.464Z,12.00
2024-05-09T19:22:07.212Z,10.35
2024-05-09T19:24:39.212Z,12.90
2024-05-09T19:27:11.134Z,10.70
2024-05-09T19:29:42.853Z,9.85
2024-05-09T19:32:14.858Z,12.10
2024-05-09T19:34:46.748Z,8.52
2024-05-09T19:37:18.517Z,8.10
2024-05-09T19:39:50.345Z,8.48
2024-05-09T19:42:22.229Z,10.43
2024-05-09T19:44:54.095Z,10.95
2024-05-09T19:47:26.654Z,13.80
2024-05-09T19:49:59.054Z,19.52
2024-05-09T19:52:31.223Z,15.13
2024-05-09T19:55:03.777Z,11.82
2024-05-09T19:57:35.724Z,8.43
2024-05-09T20:00:12.071Z,16.70
2024-05-09T20:02:46.918Z,11.82
2024-05-09T20:05:19.090Z,9.55
2024-05-09T20:07:53.491Z,10.63
2024-05-09T20:10:31.413Z,11.13
2024-05-09T20:13:06.996Z,9.07
2024-05-09T20:15:40.183Z,13.40
2024-05-09T20:18:13.253Z,10.60
2024-05-09T20:20:46.116Z,10.75
2024-05-09T20:23:18.734Z,12.23
2024-05-09T20:25:50.478Z,14.07
2024-05-09T20:28:22.661Z,10.15
2024-05-09T20:30:54.835Z,10.00
2024-05-09T20:33:27.906Z,11.23
2024-05-09T20:36:02.094Z,14.32
2024-05-09T20:38:34.395Z,12.55
2024-05-09T20:41:06.232Z,10.05
2024-05-09T20:43:38.375Z,10.88
2024-05-09T20:46:10.127Z,10.40
2024-05-09T20:48:42.229Z,15.73
2024-05-09T20:51:16.964Z,10.43
2024-05-09T20:53:48.916Z,11.20
2024-05-09T20:56:25.088Z,9.68
2024-05-09T20:58:58.010Z,11.23
2024-05-09T21:01:29.777Z,10.52
2024-05-09T21:04:03.116Z,14.57
2024-05-09T21:06:35.035Z,11.07
2024-05-09T21:09:07.159Z,12.20
2024-05-09T21:11:38.896Z,13.73
2024-05-09T21:14:11.897Z,13.27
2024-05-09T21:16:43.924Z,13.77
2024-05-09T21:19:16.663Z,12.48
2024-05-09T21:21:50.482Z,13.15
2024-05-09T21:24:22.613Z,12.52
2024-05-09T21:26:54.451Z,15.40
2024-05-09T21:29:26.329Z,14.20
2024-05-09T21:31:58.001Z,17.42
2024-05-09T21:34:30.180Z,20.20
2024-05-09T21:37:02.163Z,18.67
2024-05-09T21:39:34.103Z,18.63
2024-05-09T21:42:06.154Z,18.95
2024-05-09T21:44:38.043Z,20.50
2024-05-09T21:47:09.864Z,13.82
2024-05-09T21:49:41.691Z,14.23
2024-05-09T21:52:13.601Z,16.27
2024-05-09T21:54:47.226Z,13.20
2024-05-09T21:57:19.067Z,12.60
2024-05-09T21:59:50.928Z,15.13
2024-05-09T22:02:22.941Z,17.58
2024-05-09T22:04:55.168Z,12.32
2024-05-09T22:07:27.054Z,12.35
2024-05-09T22:09:58.856Z,13.25
2024-05-09T22:12:30.580Z,12.52
2024-05-09T22:15:02.430Z,13.93
2024-05-09T22:17:34.531Z,13.00
2024-05-09T22:20:18.011Z,15.65
2024-05-09T22:22:54.580Z,13.88
2024-05-09T22:25:30.970Z,15.75
2024-05-09T22:28:04.103Z,14.60
2024-05-09T22:30:39.179Z,15.43
2024-05-09T22:33:12.767Z,14.82
2024-05-09T22:35:45.130Z,16.42
2024-05-09T22:38:16.990Z,11.45
2024-05-09T22:40:50.052Z,16.88
2024-05-09T22:43:24.286Z,13.45
2024-05-09T22:45:57.202Z,16.85
2024-05-09T22:48:29.338Z,13.68
2024-05-09T22:51:01.119Z,20.17
2024-05-09T22:53:32.759Z,13.65
2024-05-09T22:56:04.830Z,19.38
2024-05-09T22:58:36.749Z,17.95
2024-05-09T23:01:14.853Z,21.83
2024-05-09T23:03:47.891Z,19.17
2024-05-09T23:06:19.959Z,16.63
2024-05-09T23:08:51.732Z,16.70
2024-05-09T23:11:24.046Z,20.23
2024-05-09T23:13:56.064Z,15.90
2024-05-09T23:16:27.961Z,20.25
2024-05-09T23:19:00.041Z,24.40
2024-05-09T23:21:32.106Z,20.73
2024-05-09T23:24:04.051Z,23.00
2024-05-09T23:26:36.502Z,23.48
2024-05-09T23:29:08.475Z,26.58
2024-05-09T23:31:41.635Z,21.50
2024-05-09T23:34:14.653Z,22.33
2024-05-09T23:36:47.981Z,21.48
2024-05-09T23:39:22.953Z,26.00
2024-05-09T23:41:55.375Z,23.33
2024-05-09T23:44:27.194Z,23.45
2024-05-09T23:46:59.134Z,23.17
2024-05-09T23:49:30.974Z,19.73
2024-05-09T23:52:03.156Z,19.65
2024-05-09T23:54:35.240Z,24.92
2024-05-09T23:57:09.198Z,20.88
2024-05-09T23:59:40.908Z,20.95
